createdAt,value
2022-10-11T00:05:25.443Z,13.34
2022-10-11T00:25:25.446Z,13.34
2022-10-11T00:45:25.426Z,13.34
2022-10-11T01:05:29.472Z,13.34
2022-10-11T01:25:24.903Z,13.34
2022-10-11T01:45:25.276Z,13.33
2022-10-11T02:05:25.396Z,13.33
2022-10-11T02:45:25.385Z,13.33
2022-10-11T03:05:24.621Z,13.33
2022-10-11T03:25:25.375Z,13.32
2022-10-11T03:45:24.842Z,13.32
2022-10-11T04:05:25.363Z,13.32
2022-10-11T04:25:25.370Z,13.31
2022-10-11T04:45:24.591Z,13.3
2022-10-11T05:05:24.243Z,13.3
2022-10-11T05:25:25.403Z,13.29
2022-10-11T05:45:25.349Z,13.29
2022-10-11T06:05:25.338Z,13.28
2022-10-11T06:25:25.339Z,13.27
2022-10-11T06:45:25.334Z,13.26
2022-10-11T07:05:25.335Z,13.26
2022-10-11T07:25:25.323Z,13.25
2022-10-11T07:45:25.291Z,13.25
2022-10-11T08:05:25.281Z,13.25
2022-10-11T08:25:25.254Z,13.24
2022-10-11T08:45:24.452Z,13.24
2022-10-11T09:05:25.197Z,13.24
2022-10-11T09:25:25.168Z,13.23
2022-10-11T09:45:25.142Z,13.22
2022-10-11T10:05:25.107Z,13.22
2022-10-11T10:45:25.052Z,13.21
2022-10-11T11:05:25.008Z,13.21
2022-10-11T11:45:24.942Z,13.18
2022-10-11T12:05:24.928Z,13.17
2022-10-11T13:05:24.830Z,13.17
2022-10-11T13:25:24.067Z,13.16
2022-10-11T13:45:24.775Z,13.16
2022-10-11T14:05:24.749Z,13.16
2022-10-11T14:25:24.715Z,13.16
2022-10-11T14:45:24.703Z,13.16
2022-10-11T15:05:24.657Z,13.16
2022-10-11T15:25:24.665Z,13.16
2022-10-11T15:45:24.594Z,13.17
2022-10-11T16:05:24.563Z,13.17
2022-10-11T16:25:24.525Z,13.17
2022-10-11T16:45:24.500Z,13.17
2022-10-11T17:05:24.478Z,13.17
2022-10-11T17:25:24.461Z,13.18
2022-10-11T17:45:24.451Z,13.18
2022-10-11T18:05:23.906Z,13.18
2022-10-11T18:25:24.420Z,13.18
2022-10-11T18:45:24.407Z,13.19
2022-10-11T19:05:24.392Z,13.19
2022-10-11T19:25:23.852Z,13.19
2022-10-11T19:45:24.246Z,13.2
2022-10-11T20:25:24.361Z,13.2
2022-10-11T20:45:24.368Z,13.2
2022-10-11T21:05:24.348Z,13.2
2022-10-11T21:45:23.564Z,13.2
2022-10-11T22:05:24.322Z,13.2
2022-10-11T22:25:24.310Z,13.2
2022-10-11T22:45:24.305Z,13.2
2022-10-11T23:05:24.302Z,13.2
2022-10-11T23:25:24.294Z,13.2
2022-10-11T23:45:24.286Z,13.2
